createdAt,value
2019-05-11T00:00:12.106Z,9.10
2019-05-11T00:00:46.848Z,9.10
2019-05-11T00:01:21.512Z,9.10
2019-05-11T00:01:56.227Z,9.10
2019-05-11T00:02:30.427Z,9.20
2019-05-11T00:03:04.931Z,9.10
2019-05-11T00:03:39.440Z,9.10
2019-05-11T00:04:13.929Z,9.10
2019-05-11T00:04:48.361Z,9.10
2019-05-11T00:05:23.176Z,9.10
2019-05-11T00:05:57.695Z,9.10
2019-05-11T00:06:32.302Z,9.10
2019-05-11T00:07:06.458Z,9.10
2019-05-11T00:07:40.942Z,9.10
2019-05-11T00:08:15.573Z,9.10
2019-05-11T00:08:50.241Z,9.10
2019-05-11T00:09:25.167Z,9.10
2019-05-11T00:09:59.671Z,9.10
2019-05-11T00:10:34.225Z,9.00
2019-05-11T00:11:08.958Z,9.10
2019-05-11T00:11:43.197Z,9.10
2019-05-11T00:12:17.796Z,9.10
2019-05-11T00:12:52.740Z,9.10
2019-05-11T00:13:27.426Z,9.00
2019-05-11T00:14:01.722Z,9.00
2019-05-11T00:14:36.360Z,9.00
2019-05-11T00:15:11.324Z,9.00
2019-05-11T00:15:45.969Z,9.00
2019-05-11T00:16:20.168Z,9.00
2019-05-11T00:16:54.702Z,9.10
2019-05-11T00:17:29.369Z,9.10
2019-05-11T00:18:04.138Z,9.10
2019-05-11T00:18:38.453Z,9.10
2019-05-11T00:19:12.938Z,9.10
2019-05-11T00:19:47.611Z,9.10
2019-05-11T00:20:22.359Z,9.10
2019-05-11T00:20:56.523Z,9.10
2019-05-11T00:21:31.289Z,9.10
2019-05-11T00:22:06.059Z,9.20
2019-05-11T00:22:40.476Z,9.20
2019-05-11T00:23:14.685Z,9.20
2019-05-11T00:23:49.327Z,9.20
2019-05-11T00:24:24.054Z,9.30
2019-05-11T00:24:58.593Z,9.30
2019-05-11T00:25:32.808Z,9.30
2019-05-11T00:26:07.310Z,9.30
2019-05-11T00:26:41.857Z,9.30
2019-05-11T00:27:16.356Z,9.30
2019-05-11T00:27:50.527Z,9.30
2019-05-11T00:28:25.279Z,9.30
2019-05-11T00:28:59.891Z,9.20
2019-05-11T00:29:34.409Z,9.30
2019-05-11T00:30:09.283Z,9.20
2019-05-11T00:30:44.135Z,9.20
2019-05-11T00:31:18.576Z,9.20
2019-05-11T00:31:53.067Z,9.20
2019-05-11T00:32:27.327Z,9.20
2019-05-11T00:33:01.994Z,9.20
2019-05-11T00:33:36.562Z,9.20
2019-05-11T00:34:11.189Z,9.20
2019-05-11T00:34:45.586Z,9.10
2019-05-11T00:35:20.097Z,9.10
2019-05-11T00:35:54.619Z,9.10
2019-05-11T00:36:29.309Z,9.10
2019-05-11T00:37:03.561Z,9.10
2019-05-11T00:37:38.136Z,9.20
2019-05-11T00:38:12.849Z,9.20
2019-05-11T00:38:47.380Z,9.20
2019-05-11T00:39:21.767Z,9.10
2019-05-11T00:39:56.169Z,9.20
2019-05-11T00:40:30.731Z,9.20
2019-05-11T00:41:05.503Z,9.20
2019-05-11T00:41:39.640Z,9.10
2019-05-11T00:42:14.127Z,9.10
2019-05-11T00:42:48.853Z,9.10
2019-05-11T00:43:23.503Z,9.10
2019-05-11T00:43:57.627Z,9.10
2019-05-11T00:44:32.160Z,9.10
2019-05-11T00:45:06.992Z,9.10
2019-05-11T00:45:41.452Z,9.10
2019-05-11T00:46:15.718Z,9.00
2019-05-11T00:46:50.380Z,9.00
2019-05-11T00:47:25.049Z,9.00
2019-05-11T00:47:59.603Z,9.00
2019-05-11T00:48:33.886Z,9.00
2019-05-11T00:49:08.580Z,9.00
2019-05-11T00:49:43.109Z,9.00
2019-05-11T00:50:17.696Z,9.00
2019-05-11T00:50:51.778Z,9.00
2019-05-11T00:51:26.449Z,9.00
2019-05-11T00:52:01.049Z,9.00
2019-05-11T00:52:35.679Z,9.00
2019-05-11T00:53:09.988Z,9.00
2019-05-11T00:53:44.449Z,9.00
2019-05-11T00:54:19.008Z,9.00
2019-05-11T00:54:53.607Z,9.00
2019-05-11T00:55:27.928Z,9.00
2019-05-11T00:56:02.841Z,9.00
2019-05-11T00:56:37.336Z,9.00
2019-05-11T00:57:11.748Z,9.00
2019-05-11T00:57:46.450Z,9.00
2019-05-11T00:58:21.096Z,9.00
2019-05-11T00:58:55.610Z,9.10
2019-05-11T00:59:30.337Z,9.10
2019-05-11T01:00:05.314Z,9.10
2019-05-11T01:00:39.930Z,9.10
2019-05-11T01:01:14.440Z,9.00
2019-05-11T01:01:49.111Z,9.00
2019-05-11T01:02:23.528Z,9.00
2019-05-11T01:02:58.358Z,8.90
2019-05-11T01:03:32.928Z,8.90
2019-05-11T01:04:07.697Z,8.90
2019-05-11T01:04:41.975Z,8.90
2019-05-11T01:05:16.628Z,8.90
2019-05-11T01:05:51.234Z,8.90
2019-05-11T01:06:25.963Z,8.90
2019-05-11T01:07:00.181Z,8.90
2019-05-11T01:07:34.776Z,8.90
2019-05-11T01:08:09.403Z,8.90
2019-05-11T01:08:43.950Z,8.90
2019-05-11T01:09:18.175Z,8.80
2019-05-11T01:09:52.886Z,8.80
2019-05-11T01:10:41.130Z,8.80
2019-05-11T01:11:03.927Z,8.80
2019-05-11T01:11:38.150Z,8.80
2019-05-11T01:12:12.664Z,8.90
2019-05-11T01:12:47.390Z,8.90
2019-05-11T01:13:22.217Z,8.90
2019-05-11T01:13:56.367Z,8.80
2019-05-11T01:14:31.092Z,8.80
2019-05-11T01:15:06.420Z,8.90
2019-05-11T01:15:41.047Z,8.80
2019-05-11T01:16:15.525Z,8.90
2019-05-11T01:16:50.167Z,8.80
2019-05-11T01:17:24.738Z,8.80
2019-05-11T01:17:59.408Z,8.80
2019-05-11T01:18:33.607Z,8.80
2019-05-11T01:19:08.254Z,8.80
2019-05-11T01:19:43.014Z,8.80
2019-05-11T01:20:18.752Z,8.80
2019-05-11T01:20:53.019Z,8.80
2019-05-11T01:21:27.549Z,8.70
2019-05-11T01:22:02.273Z,8.70
2019-05-11T01:22:36.737Z,8.70
2019-05-11T01:23:10.859Z,8.70
2019-05-11T01:23:45.560Z,8.70
2019-05-11T01:24:20.149Z,8.70
2019-05-11T01:24:54.589Z,8.70
2019-05-11T01:25:28.723Z,8.70
2019-05-11T01:26:03.397Z,8.70
2019-05-11T01:26:37.897Z,8.70
2019-05-11T01:27:12.457Z,8.70
2019-05-11T01:27:46.919Z,8.70
2019-05-11T01:28:21.440Z,8.70
2019-05-11T01:28:56.110Z,8.70
2019-05-11T01:29:30.650Z,8.70
2019-05-11T01:30:05.519Z,8.60
2019-05-11T01:30:40.109Z,8.60
2019-05-11T01:31:14.647Z,8.50
2019-05-11T01:31:49.227Z,8.50
2019-05-11T01:32:23.478Z,8.50
2019-05-11T01:32:57.941Z,8.50
2019-05-11T01:33:32.469Z,8.50
2019-05-11T01:34:07.384Z,8.50
2019-05-11T01:34:41.552Z,8.50
2019-05-11T01:35:16.329Z,8.50
2019-05-11T01:35:51.346Z,8.50
2019-05-11T01:36:26.198Z,8.40
2019-05-11T01:37:00.326Z,8.40
2019-05-11T01:37:34.832Z,8.40
2019-05-11T01:38:09.684Z,8.40
2019-05-11T01:38:44.263Z,8.40
2019-05-11T01:39:18.581Z,8.40
2019-05-11T01:39:53.154Z,8.40
2019-05-11T01:40:27.849Z,8.30
2019-05-11T01:41:02.881Z,8.30
2019-05-11T01:41:36.974Z,8.30
2019-05-11T01:42:11.761Z,8.30
2019-05-11T01:42:46.324Z,8.30
2019-05-11T01:43:20.835Z,8.30
2019-05-11T01:43:55.160Z,8.30
2019-05-11T01:44:29.759Z,8.20
2019-05-11T01:45:04.824Z,8.20
2019-05-11T01:45:39.259Z,8.20
2019-05-11T01:46:13.496Z,8.20
2019-05-11T01:46:47.998Z,8.20
2019-05-11T01:47:22.642Z,8.20
2019-05-11T01:47:57.236Z,8.20
2019-05-11T01:48:31.448Z,8.20
2019-05-11T01:49:06.328Z,8.10
2019-05-11T01:49:40.780Z,8.10
2019-05-11T01:50:15.580Z,8.00
2019-05-11T01:50:49.794Z,8.00
2019-05-11T01:51:24.392Z,7.90
2019-05-11T01:51:58.944Z,7.90
2019-05-11T01:52:33.395Z,7.90
2019-05-11T01:53:07.610Z,7.90
2019-05-11T01:53:42.151Z,7.90
2019-05-11T01:54:16.727Z,7.80
2019-05-11T01:54:51.224Z,7.80
2019-05-11T01:55:25.607Z,7.80
2019-05-11T01:56:00.282Z,7.90
2019-05-11T01:56:34.751Z,7.80
2019-05-11T01:57:09.598Z,7.70
2019-05-11T01:57:43.883Z,7.60
2019-05-11T01:58:18.418Z,7.60
2019-05-11T01:58:52.900Z,7.50
2019-05-11T01:59:27.720Z,7.40
2019-05-11T02:00:01.872Z,7.40
2019-05-11T02:00:36.365Z,7.40
2019-05-11T02:01:10.953Z,7.40
2019-05-11T02:01:45.886Z,7.40
2019-05-11T02:02:19.963Z,7.40
2019-05-11T02:02:54.613Z,7.40
2019-05-11T02:03:29.349Z,7.40
2019-05-11T02:04:03.932Z,7.30
2019-05-11T02:04:37.958Z,7.30
2019-05-11T02:05:31.448Z,7.30
2019-05-11T02:06:06.462Z,7.30
2019-05-11T02:06:40.626Z,7.30
2019-05-11T02:07:15.174Z,7.30
2019-05-11T02:07:49.886Z,7.30
2019-05-11T02:08:24.466Z,7.30
2019-05-11T02:08:59.018Z,7.30
2019-05-11T02:09:33.535Z,7.30
2019-05-11T02:10:08.543Z,7.30
2019-05-11T02:10:43.057Z,7.30
2019-05-11T02:11:17.197Z,7.30
2019-05-11T02:11:51.856Z,7.30
2019-05-11T02:12:26.575Z,7.30
2019-05-11T02:13:01.200Z,7.30
2019-05-11T02:13:35.389Z,7.30
2019-05-11T02:14:10.125Z,7.30
2019-05-11T02:14:44.922Z,7.40
2019-05-11T02:15:19.526Z,7.40
2019-05-11T02:15:53.804Z,7.40
2019-05-11T02:16:28.505Z,7.40
2019-05-11T02:17:02.973Z,7.50
2019-05-11T02:17:37.667Z,7.50
2019-05-11T02:18:11.754Z,7.50
2019-05-11T02:18:46.328Z,7.40
2019-05-11T02:19:20.868Z,7.40
2019-05-11T02:19:55.356Z,7.50
2019-05-11T02:20:29.917Z,7.40
2019-05-11T02:21:04.562Z,7.40
2019-05-11T02:21:39.026Z,7.50
2019-05-11T02:22:13.638Z,7.50
2019-05-11T02:22:47.786Z,7.50
2019-05-11T02:23:22.343Z,7.50
2019-05-11T02:23:56.846Z,7.50
2019-05-11T02:24:31.567Z,7.50
2019-05-11T02:25:06.297Z,7.50
2019-05-11T02:25:40.816Z,7.50
2019-05-11T02:26:15.325Z,7.60
2019-05-11T02:26:49.748Z,7.60
2019-05-11T02:27:24.012Z,7.60
2019-05-11T02:27:58.742Z,7.60
2019-05-11T02:28:33.223Z,7.60
2019-05-11T02:29:07.848Z,7.60
2019-05-11T02:29:42.225Z,7.70
2019-05-11T02:30:17.738Z,7.60
2019-05-11T02:30:52.300Z,7.60
2019-05-11T02:31:26.936Z,7.60
2019-05-11T02:32:01.208Z,7.70
2019-05-11T02:32:35.706Z,7.70
2019-05-11T02:33:10.321Z,7.70
2019-05-11T02:33:45.144Z,7.70
2019-05-11T02:34:19.279Z,7.70
2019-05-11T02:34:53.736Z,7.70
2019-05-11T02:35:28.380Z,7.80
2019-05-11T02:36:03.022Z,7.80
2019-05-11T02:36:37.362Z,7.70
2019-05-11T02:37:11.866Z,7.70
2019-05-11T02:37:46.373Z,7.70
2019-05-11T02:38:20.910Z,7.70
2019-05-11T02:38:55.120Z,7.80
2019-05-11T02:39:29.827Z,7.80
2019-05-11T02:40:05.442Z,7.80
2019-05-11T02:40:40.007Z,7.80
2019-05-11T02:41:14.247Z,7.80
2019-05-11T02:41:48.941Z,7.90
2019-05-11T02:42:23.521Z,7.90
2019-05-11T02:42:58.118Z,7.90
2019-05-11T02:43:32.515Z,7.90
2019-05-11T02:44:07.269Z,7.90
2019-05-11T02:44:41.758Z,7.90
2019-05-11T02:45:19.728Z,7.90
2019-05-11T02:45:53.843Z,7.90
2019-05-11T02:46:28.561Z,7.90
2019-05-11T02:47:02.985Z,7.90
2019-05-11T02:47:37.554Z,7.90
2019-05-11T02:48:12.139Z,7.90
2019-05-11T02:48:46.873Z,7.90
2019-05-11T02:49:21.389Z,7.90
2019-05-11T02:49:55.907Z,7.90
2019-05-11T02:50:30.458Z,7.90
2019-05-11T02:51:05.265Z,7.80
2019-05-11T02:51:40.657Z,7.80
2019-05-11T02:52:15.694Z,7.80
2019-05-11T02:52:50.275Z,7.80
2019-05-11T02:53:25.520Z,7.80
2019-05-11T02:54:01.883Z,7.90
2019-05-11T02:54:36.828Z,7.90
2019-05-11T02:55:11.256Z,7.90
2019-05-11T02:55:48.122Z,7.90
2019-05-11T02:56:22.660Z,7.90
2019-05-11T02:56:57.229Z,7.90
2019-05-11T02:57:31.621Z,7.90
2019-05-11T02:58:07.466Z,7.90
2019-05-11T02:58:42.875Z,7.80
2019-05-11T02:59:17.326Z,7.80
2019-05-11T02:59:51.664Z,7.80
2019-05-11T03:00:37.567Z,7.70
2019-05-11T03:01:12.254Z,7.70
2019-05-11T03:01:46.919Z,7.60
2019-05-11T03:02:21.018Z,7.60
2019-05-11T03:02:55.573Z,7.60
2019-05-11T03:03:30.157Z,7.60
2019-05-11T03:04:05.062Z,7.60
2019-05-11T03:04:39.203Z,7.60
2019-05-11T03:05:13.759Z,7.60
2019-05-11T03:05:48.386Z,7.70
2019-05-11T03:06:22.834Z,7.60
2019-05-11T03:06:56.938Z,7.60
2019-05-11T03:07:31.556Z,7.60
2019-05-11T03:08:06.826Z,7.60
2019-05-11T03:08:41.415Z,7.60
2019-05-11T03:09:15.502Z,7.60
2019-05-11T03:09:50.216Z,7.60
2019-05-11T03:10:24.714Z,7.60
2019-05-11T03:10:59.232Z,7.60
2019-05-11T03:11:33.361Z,7.60
2019-05-11T03:12:08.011Z,7.50
2019-05-11T03:12:42.636Z,7.50
2019-05-11T03:13:17.266Z,7.50
2019-05-11T03:13:51.367Z,7.50
2019-05-11T03:14:26.051Z,7.50
2019-05-11T03:15:00.629Z,7.50
2019-05-11T03:15:35.236Z,7.50
2019-05-11T03:16:09.575Z,7.50
2019-05-11T03:16:44.254Z,7.50
2019-05-11T03:17:23.588Z,7.50
2019-05-11T03:17:59.088Z,7.60
2019-05-11T03:18:33.551Z,7.50
2019-05-11T03:19:08.372Z,7.50
2019-05-11T03:19:42.896Z,7.50
2019-05-11T03:20:17.695Z,7.50
2019-05-11T03:20:52.114Z,7.50
2019-05-11T03:21:26.886Z,7.50
2019-05-11T03:22:01.441Z,7.50
2019-05-11T03:22:36.286Z,7.50
2019-05-11T03:23:10.413Z,7.50
2019-05-11T03:23:45.156Z,7.60
2019-05-11T03:24:23.905Z,7.60
2019-05-11T03:24:55.908Z,7.60
2019-05-11T03:25:30.175Z,7.60
2019-05-11T03:26:06.056Z,7.60
2019-05-11T03:26:40.996Z,7.70
2019-05-11T03:27:15.567Z,7.70
2019-05-11T03:27:50.004Z,7.70
2019-05-11T03:28:24.519Z,7.70
2019-05-11T03:28:58.975Z,7.70
2019-05-11T03:29:33.395Z,7.80
2019-05-11T03:30:09.164Z,7.70
2019-05-11T03:30:43.657Z,7.70
2019-05-11T03:31:18.253Z,7.60
2019-05-11T03:31:52.797Z,7.60
2019-05-11T03:32:27.067Z,7.60
2019-05-11T03:33:01.813Z,7.60
2019-05-11T03:33:36.313Z,7.60
2019-05-11T03:34:11.168Z,7.60
2019-05-11T03:34:45.563Z,7.60
2019-05-11T03:35:20.154Z,7.60
2019-05-11T03:35:54.873Z,7.70
2019-05-11T03:36:29.654Z,7.70
2019-05-11T03:37:04.908Z,7.70
2019-05-11T03:37:39.415Z,7.80
2019-05-11T03:38:13.945Z,7.80
2019-05-11T03:38:48.505Z,7.80
2019-05-11T03:39:23.144Z,7.80
2019-05-11T03:39:57.771Z,7.90
2019-05-11T03:40:32.464Z,7.90
2019-05-11T03:41:07.295Z,7.90
2019-05-11T03:41:41.386Z,8.00
2019-05-11T03:42:15.907Z,8.00
2019-05-11T03:42:50.497Z,8.00
2019-05-11T03:43:25.238Z,8.00
2019-05-11T03:43:59.350Z,8.10
2019-05-11T03:44:34.151Z,8.10
2019-05-11T03:45:09.268Z,8.10
2019-05-11T03:45:43.988Z,8.10
2019-05-11T03:46:18.177Z,8.10
2019-05-11T03:46:52.878Z,8.20
2019-05-11T03:47:27.806Z,8.20
2019-05-11T03:48:02.326Z,8.20
2019-05-11T03:48:36.466Z,8.20
2019-05-11T03:49:11.025Z,8.20
2019-05-11T03:49:45.747Z,8.20
2019-05-11T03:50:20.323Z,8.20
2019-05-11T03:50:54.662Z,8.20
2019-05-11T03:51:29.153Z,8.30
2019-05-11T03:52:03.643Z,8.30
2019-05-11T03:52:38.111Z,8.30
2019-05-11T03:53:12.406Z,8.30
2019-05-11T03:53:46.890Z,8.30
2019-05-11T03:54:21.432Z,8.40
2019-05-11T03:54:56.035Z,8.40
2019-05-11T03:55:30.405Z,8.40
2019-05-11T03:56:05.183Z,8.40
2019-05-11T03:56:39.743Z,8.50
2019-05-11T03:57:14.194Z,8.50
2019-05-11T03:57:48.667Z,8.50
2019-05-11T03:58:26.181Z,8.50
2019-05-11T03:58:59.255Z,8.50
2019-05-11T03:59:33.726Z,8.50
2019-05-11T04:00:08.948Z,8.50
2019-05-11T04:00:43.402Z,8.60
2019-05-11T04:01:17.826Z,8.60
2019-05-11T04:01:52.324Z,8.60
2019-05-11T04:02:26.982Z,8.60
2019-05-11T04:03:01.502Z,8.70
2019-05-11T04:03:36.219Z,8.70
2019-05-11T04:04:10.821Z,8.80
2019-05-11T04:04:45.031Z,8.80
2019-05-11T04:05:19.505Z,8.80
2019-05-11T04:05:54.171Z,8.80
2019-05-11T04:06:28.846Z,8.90
2019-05-11T04:07:03.166Z,9.00
2019-05-11T04:07:37.760Z,9.00
2019-05-11T04:08:12.609Z,9.10
2019-05-11T04:08:47.305Z,9.20
2019-05-11T04:09:21.510Z,9.20
2019-05-11T04:09:56.005Z,9.30
2019-05-11T04:10:30.638Z,9.30
2019-05-11T04:11:05.234Z,9.40
2019-05-11T04:11:39.325Z,9.40
2019-05-11T04:12:32.878Z,9.40
2019-05-11T04:12:50.272Z,9.50
2019-05-11T04:13:25.989Z,9.50
2019-05-11T04:14:00.154Z,9.50
2019-05-11T04:14:34.780Z,9.50
2019-05-11T04:15:10.093Z,9.50
2019-05-11T04:15:44.550Z,9.60
2019-05-11T04:16:18.790Z,9.60
2019-05-11T04:16:53.170Z,9.60
2019-05-11T04:17:27.775Z,9.70
2019-05-11T04:18:02.262Z,9.70
2019-05-11T04:18:36.292Z,9.70
2019-05-11T04:19:10.955Z,9.80
2019-05-11T04:19:45.636Z,9.80
2019-05-11T04:20:20.318Z,9.90
2019-05-11T04:20:54.556Z,9.90
2019-05-11T04:21:29.208Z,9.90
2019-05-11T04:22:03.839Z,9.90
2019-05-11T04:22:38.488Z,10.00
2019-05-11T04:23:12.800Z,10.00
2019-05-11T04:23:47.419Z,10.00
2019-05-11T04:24:22.326Z,10.00
2019-05-11T04:24:56.989Z,10.00
2019-05-11T04:25:31.072Z,10.00
2019-05-11T04:26:05.948Z,10.00
2019-05-11T04:26:40.510Z,10.00
2019-05-11T04:27:19.383Z,10.00
2019-05-11T04:27:51.116Z,10.10
2019-05-11T04:28:25.798Z,10.10
2019-05-11T04:29:00.261Z,10.10
2019-05-11T04:29:34.990Z,10.10
2019-05-11T04:30:10.254Z,10.10
2019-05-11T04:30:46.312Z,10.10
2019-05-11T04:31:21.186Z,10.10
2019-05-11T04:31:55.799Z,10.10
2019-05-11T04:32:30.140Z,10.10
2019-05-11T04:33:05.345Z,10.10
2019-05-11T04:33:39.998Z,10.10
2019-05-11T04:34:14.820Z,10.20
2019-05-11T04:34:49.078Z,10.10
2019-05-11T04:35:23.708Z,10.10
2019-05-11T04:35:58.124Z,10.10
2019-05-11T04:36:32.869Z,10.10
2019-05-11T04:37:07.050Z,10.20
2019-05-11T04:37:41.570Z,10.20
2019-05-11T04:38:16.020Z,10.20
2019-05-11T04:38:50.540Z,10.20
2019-05-11T04:39:24.842Z,10.20
2019-05-11T04:39:59.290Z,10.20
2019-05-11T04:40:33.959Z,10.30
2019-05-11T04:41:09.348Z,10.30
2019-05-11T04:41:43.705Z,10.30
2019-05-11T04:42:18.254Z,10.30
2019-05-11T04:42:55.743Z,10.30
2019-05-11T04:43:29.513Z,10.30
2019-05-11T04:44:03.776Z,10.30
2019-05-11T04:44:38.549Z,10.40
2019-05-11T04:45:13.490Z,10.40
2019-05-11T04:45:48.167Z,10.40
2019-05-11T04:46:22.462Z,10.40
2019-05-11T04:46:57.089Z,10.40
2019-05-11T04:47:31.837Z,10.40
2019-05-11T04:48:06.909Z,10.40
2019-05-11T04:48:45.233Z,10.40
2019-05-11T04:49:19.680Z,10.40
2019-05-11T04:49:54.266Z,10.40
2019-05-11T04:50:28.921Z,10.40
2019-05-11T04:51:03.145Z,10.40
2019-05-11T04:51:37.574Z,10.40
2019-05-11T04:52:12.023Z,10.40
2019-05-11T04:52:46.818Z,10.40
2019-05-11T04:53:20.970Z,10.40
2019-05-11T04:53:55.457Z,10.40
2019-05-11T04:54:30.134Z,10.40
2019-05-11T04:55:04.815Z,10.30
2019-05-11T04:55:38.960Z,10.30
2019-05-11T04:56:13.453Z,10.30
2019-05-11T04:56:48.109Z,10.30
2019-05-11T04:57:22.625Z,10.30
2019-05-11T04:57:56.846Z,10.30
2019-05-11T04:58:31.417Z,10.40
2019-05-11T04:59:05.854Z,10.40
2019-05-11T04:59:40.548Z,10.40
2019-05-11T05:00:15.463Z,10.50
2019-05-11T05:00:50.211Z,10.50
2019-05-11T05:01:24.726Z,10.60
2019-05-11T05:01:59.329Z,10.60
2019-05-11T05:02:33.462Z,10.70
2019-05-11T05:03:08.005Z,10.70
2019-05-11T05:03:47.436Z,10.70
2019-05-11T05:04:19.003Z,10.70
2019-05-11T05:04:53.150Z,10.80
2019-05-11T05:05:27.646Z,10.80
2019-05-11T05:06:20.850Z,10.80
2019-05-11T05:06:39.005Z,10.90
2019-05-11T05:07:16.495Z,10.90
2019-05-11T05:07:50.632Z,10.90
2019-05-11T05:08:26.628Z,11.00
2019-05-11T05:09:03.595Z,11.00
2019-05-11T05:09:42.545Z,11.00
2019-05-11T05:10:19.679Z,11.00
2019-05-11T05:10:52.423Z,11.10
2019-05-11T05:11:30.567Z,11.10
2019-05-11T05:12:02.827Z,11.20
2019-05-11T05:12:37.271Z,11.20
2019-05-11T05:13:11.938Z,11.20
2019-05-11T05:13:46.505Z,11.30
2019-05-11T05:14:20.712Z,11.40
2019-05-11T05:14:55.126Z,11.40
2019-05-11T05:15:29.797Z,11.40
2019-05-11T05:16:04.416Z,11.50
2019-05-11T05:16:38.655Z,11.50
2019-05-11T05:17:13.298Z,11.50
2019-05-11T05:17:47.964Z,11.50
2019-05-11T05:18:22.618Z,11.50
2019-05-11T05:18:56.716Z,11.50
2019-05-11T05:19:31.494Z,11.60
2019-05-11T05:20:06.649Z,11.50
2019-05-11T05:20:43.839Z,11.50
2019-05-11T05:21:16.830Z,11.50
2019-05-11T05:21:51.550Z,11.50
2019-05-11T05:22:28.021Z,11.60
2019-05-11T05:23:02.200Z,11.70
2019-05-11T05:23:36.426Z,11.60
2019-05-11T05:24:11.165Z,11.70
2019-05-11T05:24:45.668Z,11.80
2019-05-11T05:25:20.261Z,11.90
2019-05-11T05:25:54.776Z,12.10
2019-05-11T05:26:29.278Z,12.20
2019-05-11T05:27:03.797Z,12.30
2019-05-11T05:27:38.381Z,12.50
2019-05-11T05:28:12.840Z,12.60
2019-05-11T05:28:47.429Z,12.80
2019-05-11T05:29:21.881Z,13.00
2019-05-11T05:29:56.450Z,13.20
2019-05-11T05:30:30.746Z,13.30
2019-05-11T05:31:05.588Z,13.30
2019-05-11T05:31:40.318Z,13.30
2019-05-11T05:32:14.775Z,13.40
2019-05-11T05:32:49.199Z,13.40
2019-05-11T05:33:23.808Z,13.60
2019-05-11T05:34:01.340Z,13.50
2019-05-11T05:34:34.831Z,13.60
2019-05-11T05:35:09.659Z,13.60
2019-05-11T05:35:44.211Z,13.80
2019-05-11T05:36:18.628Z,13.80
2019-05-11T05:36:52.997Z,14.00
2019-05-11T05:37:27.208Z,14.10
2019-05-11T05:38:01.796Z,14.30
2019-05-11T05:38:36.287Z,14.40
2019-05-11T05:39:10.836Z,14.40
2019-05-11T05:39:44.926Z,14.50
2019-05-11T05:40:19.642Z,14.50
2019-05-11T05:40:54.249Z,14.50
2019-05-11T05:41:28.779Z,14.70
2019-05-11T05:42:02.990Z,14.80
2019-05-11T05:42:37.492Z,14.90
2019-05-11T05:43:25.548Z,15.10
2019-05-11T05:43:48.237Z,14.90
2019-05-11T05:44:22.450Z,14.90
2019-05-11T05:44:57.044Z,14.90
2019-05-11T05:45:31.679Z,14.70
2019-05-11T05:46:06.224Z,14.80
2019-05-11T05:46:40.399Z,15.00
2019-05-11T05:47:14.978Z,15.10
2019-05-11T05:47:49.487Z,15.20
2019-05-11T05:48:24.070Z,15.30
2019-05-11T05:48:58.205Z,15.50
2019-05-11T05:49:32.978Z,15.60
2019-05-11T05:50:07.887Z,15.50
2019-05-11T05:50:42.448Z,15.60
2019-05-11T05:51:16.743Z,15.50
2019-05-11T05:51:51.460Z,15.40
2019-05-11T05:52:25.919Z,15.40
2019-05-11T05:53:00.474Z,15.50
2019-05-11T05:53:34.676Z,15.60
2019-05-11T05:54:09.091Z,15.70
2019-05-11T05:54:43.598Z,15.70
2019-05-11T05:55:18.162Z,15.60
2019-05-11T05:55:52.652Z,15.80
2019-05-11T05:56:27.236Z,15.90
2019-05-11T05:57:01.928Z,16.00
2019-05-11T05:57:36.519Z,16.00
2019-05-11T05:58:10.668Z,16.00
2019-05-11T05:58:45.242Z,16.10
2019-05-11T05:59:19.761Z,16.10
2019-05-11T05:59:54.429Z,16.30
2019-05-11T06:00:28.797Z,16.40
2019-05-11T06:01:03.577Z,16.30
2019-05-11T06:01:37.957Z,16.40
2019-05-11T06:02:12.837Z,16.40
2019-05-11T06:02:47.149Z,16.30
2019-05-11T06:03:21.740Z,16.30
2019-05-11T06:03:56.375Z,16.40
2019-05-11T06:04:31.105Z,16.40
2019-05-11T06:05:05.570Z,16.30
2019-05-11T06:05:40.149Z,16.40
2019-05-11T06:06:14.696Z,16.60
2019-05-11T06:06:49.415Z,16.60
2019-05-11T06:07:23.715Z,16.60
2019-05-11T06:07:58.368Z,16.80
2019-05-11T06:08:32.999Z,16.80
2019-05-11T06:09:08.152Z,16.90
2019-05-11T06:09:42.372Z,17.00
2019-05-11T06:10:17.362Z,17.00
2019-05-11T06:10:52.047Z,17.10
2019-05-11T06:11:26.816Z,17.20
2019-05-11T06:12:00.943Z,17.30
2019-05-11T06:12:35.572Z,17.40
2019-05-11T06:13:10.019Z,17.50
2019-05-11T06:13:45.781Z,17.50
2019-05-11T06:14:20.321Z,17.40
2019-05-11T06:14:54.870Z,17.20
2019-05-11T06:15:29.538Z,17.10
2019-05-11T06:16:04.326Z,17.00
2019-05-11T06:16:38.563Z,16.90
2019-05-11T06:17:12.990Z,16.80
2019-05-11T06:17:47.846Z,16.90
2019-05-11T06:18:22.358Z,17.00
2019-05-11T06:18:56.479Z,17.00
2019-05-11T06:19:31.059Z,17.00
2019-05-11T06:20:06.386Z,17.10
2019-05-11T06:20:40.987Z,17.20
2019-05-11T06:21:15.309Z,17.20
2019-05-11T06:21:50.060Z,17.20
2019-05-11T06:22:24.609Z,17.20
2019-05-11T06:22:59.136Z,17.30
2019-05-11T06:23:33.454Z,17.40
2019-05-11T06:24:08.781Z,17.50
2019-05-11T06:24:43.778Z,17.50
2019-05-11T06:25:18.572Z,17.60
2019-05-11T06:25:52.997Z,17.60
2019-05-11T06:26:27.529Z,17.60
2019-05-11T06:27:02.036Z,17.50
2019-05-11T06:27:36.654Z,17.50
2019-05-11T06:28:10.991Z,17.60
2019-05-11T06:28:45.759Z,17.60
2019-05-11T06:29:21.908Z,17.80
2019-05-11T06:29:56.644Z,17.90
2019-05-11T06:30:31.257Z,17.80
2019-05-11T06:31:05.853Z,17.70
2019-05-11T06:31:40.401Z,17.80
2019-05-11T06:32:15.042Z,17.90
2019-05-11T06:32:49.255Z,17.80
2019-05-11T06:33:24.278Z,17.90
2019-05-11T06:33:58.832Z,18.00
2019-05-11T06:34:33.579Z,18.20
2019-05-11T06:35:08.768Z,18.00
2019-05-11T06:35:43.379Z,18.00
2019-05-11T06:36:17.980Z,18.10
2019-05-11T06:36:52.675Z,18.10
2019-05-11T06:37:26.886Z,18.20
2019-05-11T06:38:01.427Z,18.20
2019-05-11T06:38:36.144Z,18.20
2019-05-11T06:39:10.895Z,18.30
2019-05-11T06:39:45.219Z,18.40
2019-05-11T06:40:20.656Z,18.60
2019-05-11T06:40:55.309Z,18.70
2019-05-11T06:41:29.955Z,18.80
2019-05-11T06:42:04.038Z,18.70
2019-05-11T06:42:38.536Z,18.70
2019-05-11T06:43:13.106Z,18.90
2019-05-11T06:44:00.832Z,19.10
2019-05-11T06:44:23.541Z,19.10
2019-05-11T06:44:58.094Z,19.10
2019-05-11T06:45:32.846Z,19.20
2019-05-11T06:46:07.304Z,19.20
2019-05-11T06:46:41.487Z,19.40
2019-05-11T06:47:16.094Z,19.30
2019-05-11T06:47:50.702Z,19.20
2019-05-11T06:48:25.432Z,19.10
2019-05-11T06:48:59.617Z,19.10
2019-05-11T06:49:34.465Z,18.90
2019-05-11T06:50:09.457Z,19.00
2019-05-11T06:50:43.978Z,18.90
2019-05-11T06:51:18.148Z,19.00
2019-05-11T06:51:52.751Z,19.20
2019-05-11T06:52:27.537Z,19.30
2019-05-11T06:53:02.110Z,19.30
2019-05-11T06:53:36.417Z,19.30
2019-05-11T06:54:11.489Z,19.10
2019-05-11T06:54:45.977Z,19.10
2019-05-11T06:55:20.490Z,18.90
2019-05-11T06:55:54.978Z,18.90
2019-05-11T06:56:29.890Z,18.90
2019-05-11T06:57:04.654Z,18.90
2019-05-11T06:57:39.312Z,19.10
2019-05-11T06:58:13.706Z,19.10
2019-05-11T06:58:48.398Z,19.20
2019-05-11T06:59:23.153Z,19.40
2019-05-11T06:59:57.621Z,19.60
2019-05-11T07:00:31.853Z,19.60
2019-05-11T07:01:06.456Z,19.80
2019-05-11T07:01:40.962Z,19.90
2019-05-11T07:02:15.659Z,19.90
2019-05-11T07:02:49.886Z,20.00
2019-05-11T07:03:24.697Z,20.20
2019-05-11T07:03:59.311Z,20.10
2019-05-11T07:04:33.848Z,20.40
2019-05-11T07:05:08.085Z,20.50
2019-05-11T07:05:42.557Z,20.60
2019-05-11T07:06:17.177Z,20.80
2019-05-11T07:06:51.855Z,20.90
2019-05-11T07:07:26.259Z,20.80
2019-05-11T07:08:00.690Z,20.80
2019-05-11T07:08:35.295Z,20.90
2019-05-11T07:09:10.095Z,20.80
2019-05-11T07:09:44.140Z,20.90
2019-05-11T07:10:18.816Z,21.10
2019-05-11T07:10:53.310Z,21.20
2019-05-11T07:11:28.103Z,21.40
2019-05-11T07:12:02.499Z,21.10
2019-05-11T07:12:37.396Z,21.10
2019-05-11T07:13:11.958Z,21.20
2019-05-11T07:13:46.489Z,21.20
2019-05-11T07:14:21.552Z,21.30
2019-05-11T07:14:56.378Z,21.30
2019-05-11T07:15:30.949Z,21.40
2019-05-11T07:16:05.525Z,21.30
2019-05-11T07:16:39.840Z,21.50
2019-05-11T07:17:14.447Z,21.30
2019-05-11T07:17:49.205Z,21.30
2019-05-11T07:18:23.880Z,21.20
2019-05-11T07:18:57.946Z,21.30
2019-05-11T07:19:32.594Z,21.40
2019-05-11T07:20:07.701Z,21.20
2019-05-11T07:20:50.439Z,21.40
2019-05-11T07:21:18.104Z,21.40
2019-05-11T07:21:52.676Z,21.60
2019-05-11T07:22:27.097Z,21.70
2019-05-11T07:23:01.732Z,22.00
2019-05-11T07:23:36.200Z,22.10
2019-05-11T07:24:10.855Z,22.40
2019-05-11T07:24:45.334Z,22.50
2019-05-11T07:25:19.820Z,22.70
2019-05-11T07:25:54.251Z,22.50
2019-05-11T07:26:28.810Z,22.50
2019-05-11T07:27:03.487Z,22.50
2019-05-11T07:27:38.045Z,22.50
2019-05-11T07:28:12.507Z,22.50
2019-05-11T07:28:47.134Z,22.60
2019-05-11T07:29:21.690Z,22.60
2019-05-11T07:29:56.338Z,22.40
2019-05-11T07:30:30.611Z,22.10
2019-05-11T07:31:05.224Z,21.90
2019-05-11T07:31:39.697Z,22.00
2019-05-11T07:32:22.463Z,22.20
2019-05-11T07:32:50.119Z,22.00
2019-05-11T07:33:24.686Z,22.00
2019-05-11T07:33:59.313Z,22.10
2019-05-11T07:34:33.850Z,21.90
2019-05-11T07:35:08.661Z,21.80